Ticonic, Iowa
Current Conditions -  °F | °C
As of 9:54 PM on Friday 24 Oct 2014 (Local Time) from KTQE Reporting Station
Clear Clear  
Wind Chill: 54°   Ceiling: Unl
Heat Index: 54°   Visibility: 10mi
Dew Point: 48°   Wind: 0mph
Humidity: 80%   Direction: NA
Pressure: 29.99"   Gusts: NA
Location:  42.105°N, 95.9553°W
Report Text: KTQE 250254Z AUTO 00000KT 10SM CLR 12/09 A2999 RMK AO2 SLP148 T01220089 53018
Loading
Personal Weather Stations






























Interactive Weather Map
Tropical Storm Tracking
New forecast layout! Learn more

10-Day Weather Forecast

Advertisements
Track Severe Weather on mobile